Halifax, Kentucky
Current Conditions -  °F | °C
As of 5:53 PM on Saturday 25 Oct 2014 (Local Time) from KBWG Reporting Station
Clear Clear  
Wind Chill: 74°   Ceiling: Unl
Heat Index: 74°   Visibility: 10mi
Dew Point: 58°   Wind: 3mph
Humidity: 57%   Direction: 290°WNW
Pressure: 30"   Gusts: NA
Location:  36.7794°N, 86.196°W
Report Text: KBWG 252253Z AUTO 29003KT 10SM CLR 23/14 A3000 RMK AO2 SLP155 T02330144
Loading
Personal Weather Stations






























Interactive Weather Map
Tropical Storm Tracking
New forecast layout! Learn more

10-Day Weather Forecast

Advertisements
Track Severe Weather on mobile